Time;durP1;ratioP1;P1;durP2;ratioP2;P2;SDS_P1;SDS_P2;PMS_P1;PMS_P2;Temp;Humidity;BMP_temperature;BMP_pressure;BME280_temperature;BME280_humidity;BME280_pressure;Samples;Min_cycle;Max_cycle;Signal;HPM_P1;HPM_P2
2022/11/17 00:00:43;;;;;;;;;;;6.30;99.90;;;;;;4983783;28;20229;-74
2022/11/17 00:03:14;;;;;;;;;;;6.30;99.90;;;;;;4984811;28;19914;-74
2022/11/17 00:05:39;;;;;;;;;;;6.40;99.90;;;;;;4983640;28;19965;-74
2022/11/17 00:08:05;;;;;;;;;;;6.50;99.90;;;;;;4984322;28;19973;-74
2022/11/17 00:10:31;;;;;;;;;;;6.50;99.90;;;;;;4984100;28;19911;-74
2022/11/17 00:15:42;;;;;;;;;;;6.50;99.90;;;;;;4983730;28;19917;-75
2022/11/17 00:21:22;;;;;;;;;;;6.60;99.90;;;;;;4990898;28;19918;-74
2022/11/17 00:23:48;;;;;;;;;;;6.60;99.90;;;;;;4983458;28;19961;-75
2022/11/17 00:26:15;;;;;;;;;;;6.70;99.90;;;;;;4982810;28;19938;-75
2022/11/17 00:28:41;;;;;;;;;;;6.70;99.90;;;;;;4982909;28;19957;-75
2022/11/17 00:34:04;;;;;;;;;;;6.70;99.90;;;;;;4974010;28;19922;-74
2022/11/17 00:36:32;;;;;;;;;;;6.80;99.90;;;;;;4983084;28;19920;-74
2022/11/17 00:38:58;;;;;;;;;;;6.80;99.90;;;;;;4982925;28;20106;-74
2022/11/17 00:41:23;;;;;;;;;;;6.80;99.90;;;;;;4983194;28;19917;-74
2022/11/17 00:43:49;;;;;;;;;;;6.80;99.90;;;;;;4983025;28;19946;-74
2022/11/17 00:46:15;;;;;;;;;;;6.80;99.90;;;;;;4983347;28;19914;-75
2022/11/17 00:48:40;;;;;;;;;;;6.90;99.90;;;;;;4983548;28;19910;-75
2022/11/17 00:51:06;;;;;;;;;;;6.90;99.90;;;;;;4983822;28;19917;-76
2022/11/17 00:53:31;;;;;;;;;;;6.90;99.90;;;;;;4983718;28;19913;-74
2022/11/17 00:55:57;;;;;;;;;;;6.90;99.90;;;;;;4983742;28;19933;-74
2022/11/17 00:58:23;;;;;;;;;;;7.00;99.90;;;;;;4983041;28;20232;-74
2022/11/17 01:00:48;;;;;;;;;;;7.00;99.90;;;;;;4983467;28;20194;-74
2022/11/17 01:03:14;;;;;;;;;;;7.00;99.90;;;;;;4983483;28;19910;-74
2022/11/17 01:05:40;;;;;;;;;;;7.00;99.90;;;;;;4983608;28;20209;-75
2022/11/17 01:08:05;;;;;;;;;;;7.10;99.90;;;;;;4983314;28;20092;-74
2022/11/17 01:10:33;;;;;;;;;;;7.10;99.90;;;;;;4982506;28;19910;-74
2022/11/17 01:12:59;;;;;;;;;;;7.10;99.90;;;;;;4982537;28;20173;-74
2022/11/17 01:15:24;;;;;;;;;;;7.10;99.90;;;;;;4983307;28;19918;-74
2022/11/17 01:17:50;;;;;;;;;;;7.10;99.90;;;;;;4983072;28;19976;-74
2022/11/17 01:20:16;;;;;;;;;;;7.10;99.90;;;;;;4983660;28;19965;-74
2022/11/17 01:22:41;;;;;;;;;;;7.10;99.90;;;;;;4983445;28;19910;-74
2022/11/17 01:25:07;;;;;;;;;;;7.20;99.90;;;;;;4983359;28;19922;-74
2022/11/17 01:27:33;;;;;;;;;;;7.20;99.90;;;;;;4983226;28;19918;-74
2022/11/17 01:29:58;;;;;;;;;;;7.20;99.90;;;;;;4983105;28;19914;-74
2022/11/17 01:32:24;;;;;;;;;;;7.30;99.90;;;;;;4983323;28;19910;-74
2022/11/17 01:34:50;;;;;;;;;;;7.20;99.90;;;;;;4983507;28;19964;-74
2022/11/17 01:37:18;;;;;;;;;;;7.20;99.90;;;;;;4982897;28;19914;-74
2022/11/17 01:39:44;;;;;;;;;;;7.20;99.90;;;;;;4983478;28;20247;-75
2022/11/17 01:42:15;;;;;;;;;;;7.30;99.90;;;;;;4966137;28;19941;-74
2022/11/17 01:44:40;;;;;;;;;;;7.30;99.90;;;;;;4981979;28;20074;-75
2022/11/17 01:47:22;;;;;;;;;;;7.30;99.90;;;;;;4981706;28;19981;-74
2022/11/17 01:49:49;;;;;;;;;;;7.20;99.90;;;;;;4982282;28;19989;-74
2022/11/17 01:52:14;;;;;;;;;;;7.30;99.90;;;;;;4983150;28;19910;-74
2022/11/17 01:54:40;;;;;;;;;;;7.30;99.90;;;;;;4986072;28;19953;-74
2022/11/17 01:57:17;;;;;;;;;;;7.30;99.90;;;;;;4969400;28;19917;-74
2022/11/17 01:59:49;;;;;;;;;;;7.30;99.90;;;;;;4985841;28;20211;-74
2022/11/17 02:02:14;;;;;;;;;;;7.40;99.90;;;;;;4985850;28;19950;-74
2022/11/17 02:04:48;;;;;;;;;;;7.40;99.90;;;;;;4985774;28;19945;-74
2022/11/17 02:07:23;;;;;;;;;;;7.40;99.90;;;;;;4969621;28;19916;-74
2022/11/17 02:09:49;;;;;;;;;;;7.40;99.90;;;;;;4985700;28;19933;-74
2022/11/17 02:12:15;;;;;;;;;;;7.40;99.90;;;;;;4985692;28;19980;-74
2022/11/17 02:14:40;;;;;;;;;;;7.50;99.90;;;;;;4986070;28;19965;-74
2022/11/17 02:17:06;;;;;;;;;;;7.40;99.90;;;;;;4986370;28;19914;-74
2022/11/17 02:19:37;;;;;;;;;;;7.40;99.90;;;;;;4985495;28;19917;-74
2022/11/17 02:22:19;;;;;;;;;;;7.40;99.90;;;;;;4985681;28;19918;-75
2022/11/17 02:24:48;;;;;;;;;;;7.50;99.90;;;;;;4985459;28;19923;-75
2022/11/17 02:27:35;;;;;;;;;;;7.50;99.90;;;;;;4985064;28;19918;-75
2022/11/17 02:30:10;;;;;;;;;;;7.50;99.90;;;;;;4986335;28;19989;-74
2022/11/17 02:32:53;;;;;;;;;;;7.50;99.90;;;;;;4985752;28;19956;-74
2022/11/17 02:35:40;;;;;;;;;;;7.50;99.90;;;;;;4986489;28;19910;-74
2022/11/17 02:38:10;;;;;;;;;;;7.50;99.90;;;;;;5001220;28;19930;-74
2022/11/17 02:40:48;;;;;;;;;;;7.50;99.90;;;;;;4985225;28;19916;-74
2022/11/17 02:46:14;;;;;;;;;;;7.50;99.90;;;;;;4985065;28;19937;-74
2022/11/17 02:48:43;;;;;;;;;;;7.50;99.90;;;;;;4969578;28;19941;-74
2022/11/17 02:51:12;;;;;;;;;;;7.60;99.90;;;;;;4969440;28;19954;-74
2022/11/17 02:53:37;;;;;;;;;;;7.60;99.90;;;;;;4969249;28;19910;-74
2022/11/17 02:56:03;;;;;;;;;;;7.70;99.90;;;;;;4984839;28;19953;-74
2022/11/17 02:58:29;;;;;;;;;;;7.70;99.90;;;;;;4985714;28;19989;-74
2022/11/17 03:01:07;;;;;;;;;;;7.70;99.90;;;;;;4968521;28;20086;-74
2022/11/17 03:03:59;;;;;;;;;;;7.60;99.90;;;;;;4985356;28;19957;-74
2022/11/17 03:06:36;;;;;;;;;;;7.60;99.90;;;;;;4985569;28;20365;-74
2022/11/17 03:09:22;;;;;;;;;;;7.60;99.90;;;;;;4984721;28;19917;-74
2022/11/17 03:11:59;;;;;;;;;;;7.70;99.90;;;;;;4984805;28;19910;-74
2022/11/17 03:14:28;;;;;;;;;;;7.60;99.90;;;;;;4969431;28;20121;-74
2022/11/17 03:17:00;;;;;;;;;;;7.60;99.90;;;;;;4984266;28;19918;-74
2022/11/17 03:19:36;;;;;;;;;;;7.70;99.90;;;;;;4984666;28;20113;-74
2022/11/17 03:22:50;;;;;;;;;;;7.70;99.90;;;;;;4984482;28;19910;-75
2022/11/17 03:25:17;;;;;;;;;;;7.70;99.90;;;;;;4983643;28;19962;-75
2022/11/17 03:27:46;;;;;;;;;;;7.70;99.90;;;;;;4984090;28;19910;-75
2022/11/17 03:30:11;;;;;;;;;;;7.70;99.90;;;;;;4984117;28;19942;-75
2022/11/17 03:32:42;;;;;;;;;;;7.70;99.90;;;;;;4985413;28;19910;-74
2022/11/17 03:35:09;;;;;;;;;;;7.70;99.90;;;;;;4984325;28;19910;-74
2022/11/17 03:37:39;;;;;;;;;;;7.70;99.90;;;;;;4984105;28;19914;-75
2022/11/17 03:40:07;;;;;;;;;;;7.70;99.90;;;;;;4984114;28;19917;-75
2022/11/17 03:42:33;;;;;;;;;;;7.70;99.90;;;;;;4984320;28;19910;-75
2022/11/17 03:45:19;;;;;;;;;;;7.70;99.90;;;;;;4983589;28;19929;-75
2022/11/17 03:47:45;;;;;;;;;;;7.80;99.90;;;;;;4967458;28;19917;-75
2022/11/17 03:50:15;;;;;;;;;;;7.80;99.90;;;;;;4984052;28;19973;-75
2022/11/17 03:52:41;;;;;;;;;;;7.70;99.90;;;;;;4985073;28;19918;-75
2022/11/17 03:55:07;;;;;;;;;;;7.80;99.90;;;;;;4967722;28;20036;-75
2022/11/17 03:57:52;;;;;;;;;;;7.80;99.90;;;;;;4983304;28;20406;-75
2022/11/17 04:00:18;;;;;;;;;;;7.80;99.90;;;;;;4983640;28;20320;-75
2022/11/17 04:02:45;;;;;;;;;;;7.80;99.90;;;;;;4983623;28;19918;-75
2022/11/17 04:05:11;;;;;;;;;;;7.80;99.90;;;;;;4983665;28;19937;-75
2022/11/17 04:07:41;;;;;;;;;;;7.80;99.90;;;;;;4983143;28;20151;-75
2022/11/17 04:10:08;;;;;;;;;;;7.80;99.90;;;;;;4984682;28;19910;-75
2022/11/17 04:18:03;;;;;;;;;;;7.90;99.90;;;;;;4984178;28;20158;-74
2022/11/17 04:20:34;;;;;;;;;;;7.90;99.90;;;;;;4984504;28;19918;-75
2022/11/17 04:23:27;;;;;;;;;;;7.80;99.90;;;;;;4984432;28;19910;-74
2022/11/17 04:28:43;;;;;;;;;;;7.90;99.90;;;;;;4983245;28;19969;-75
2022/11/17 04:31:26;;;;;;;;;;;7.80;99.90;;;;;;4982858;28;19971;-74
2022/11/17 04:33:56;;;;;;;;;;;7.80;99.90;;;;;;4984185;28;19934;-75
2022/11/17 04:36:31;;;;;;;;;;;7.80;99.90;;;;;;4982936;28;20356;-74
2022/11/17 04:38:57;;;;;;;;;;;7.80;99.90;;;;;;4982413;28;19921;-74
2022/11/17 04:44:10;;;;;;;;;;;7.90;99.90;;;;;;4983108;28;19942;-75
2022/11/17 04:46:36;;;;;;;;;;;7.80;99.90;;;;;;4966391;28;19986;-75
2022/11/17 04:49:02;;;;;;;;;;;7.80;99.90;;;;;;4982708;28;20163;-74
2022/11/17 04:51:28;;;;;;;;;;;7.80;99.90;;;;;;4983284;28;19937;-74
2022/11/17 04:53:53;;;;;;;;;;;7.80;99.90;;;;;;4982935;28;19914;-74
2022/11/17 04:56:19;;;;;;;;;;;7.80;99.90;;;;;;4983575;28;20117;-75
2022/11/17 04:58:45;;;;;;;;;;;7.80;99.90;;;;;;4982306;28;20145;-75
2022/11/17 05:01:15;;;;;;;;;;;7.80;99.90;;;;;;4982730;28;19910;-75
2022/11/17 05:03:51;;;;;;;;;;;7.70;99.90;;;;;;4983567;28;19933;-74
2022/11/17 05:06:23;;;;;;;;;;;7.70;99.90;;;;;;4982111;28;19945;-74
2022/11/17 05:08:48;;;;;;;;;;;7.70;99.90;;;;;;4983685;28;19918;-74
2022/11/17 05:13:58;;;;;;;;;;;7.70;99.90;;;;;;4982153;28;19940;-74
2022/11/17 05:19:11;;;;;;;;;;;7.70;99.90;;;;;;4983311;28;19921;-74
2022/11/17 05:21:37;;;;;;;;;;;7.70;99.90;;;;;;4982471;28;19945;-74
2022/11/17 05:24:02;;;;;;;;;;;7.70;99.90;;;;;;4983405;28;19918;-74
2022/11/17 05:26:31;;;;;;;;;;;7.70;99.90;;;;;;4981559;28;19920;-74
2022/11/17 05:28:58;;;;;;;;;;;7.70;99.90;;;;;;4981795;28;19910;-75
2022/11/17 05:31:24;;;;;;;;;;;7.80;99.90;;;;;;4982289;28;20230;-74
2022/11/17 05:33:50;;;;;;;;;;;7.70;99.90;;;;;;4982181;28;20213;-74
2022/11/17 05:36:15;;;;;;;;;;;7.80;99.90;;;;;;4981927;28;20039;-75
2022/11/17 05:38:41;;;;;;;;;;;7.80;99.90;;;;;;4965720;28;20201;-75
2022/11/17 05:41:07;;;;;;;;;;;7.80;99.90;;;;;;4983180;28;19936;-75
2022/11/17 05:43:33;;;;;;;;;;;7.70;99.90;;;;;;4965622;28;19918;-75
2022/11/17 05:45:58;;;;;;;;;;;7.70;99.90;;;;;;4983063;28;19922;-75
2022/11/17 05:48:24;;;;;;;;;;;7.70;99.90;;;;;;4982961;28;19949;-75
2022/11/17 05:50:56;;;;;;;;;;;7.70;99.90;;;;;;4978656;28;19910;-75
2022/11/17 05:53:22;;;;;;;;;;;7.70;99.90;;;;;;4962853;28;20110;-75
2022/11/17 05:55:48;;;;;;;;;;;7.70;99.90;;;;;;4963761;28;19928;-75
2022/11/17 05:58:36;;;;;;;;;;;7.70;99.90;;;;;;4963153;29;19981;-75
2022/11/17 06:01:01;;;;;;;;;;;7.70;99.90;;;;;;4981871;28;19910;-75
2022/11/17 06:03:37;;;;;;;;;;;7.70;99.90;;;;;;4981580;28;20164;-75
2022/11/17 06:06:02;;;;;;;;;;;7.70;99.90;;;;;;4982784;28;20252;-75
2022/11/17 06:08:28;;;;;;;;;;;7.80;99.90;;;;;;4982761;28;19914;-75
2022/11/17 06:10:54;;;;;;;;;;;7.80;99.90;;;;;;4981551;28;20141;-75
2022/11/17 06:13:24;;;;;;;;;;;7.80;99.90;;;;;;4965331;28;19918;-75
2022/11/17 06:15:51;;;;;;;;;;;7.80;99.90;;;;;;4961922;29;19968;-75
2022/11/17 06:18:17;;;;;;;;;;;7.80;99.90;;;;;;4963234;28;20173;-75
2022/11/17 06:20:45;;;;;;;;;;;7.80;99.90;;;;;;4962283;29;19910;-75
2022/11/17 06:23:11;;;;;;;;;;;7.70;99.90;;;;;;4962475;28;19910;-74
2022/11/17 06:25:37;;;;;;;;;;;7.70;99.90;;;;;;4963093;29;20181;-75
2022/11/17 06:28:04;;;;;;;;;;;7.80;99.90;;;;;;4961687;29;19985;-75
2022/11/17 06:30:29;;;;;;;;;;;7.70;99.90;;;;;;4962312;28;19919;-75
2022/11/17 06:32:55;;;;;;;;;;;7.70;99.90;;;;;;4962311;29;19917;-74
2022/11/17 06:35:21;;;;;;;;;;;7.80;99.90;;;;;;4978432;28;20150;-74
2022/11/17 06:37:46;;;;;;;;;;;7.80;99.90;;;;;;4961796;28;19930;-74
2022/11/17 06:40:12;;;;;;;;;;;7.80;99.90;;;;;;4965625;29;19949;-75
2022/11/17 06:45:23;;;;;;;;;;;7.80;99.90;;;;;;4971654;28;20149;-74
2022/11/17 06:47:48;;;;;;;;;;;7.80;99.90;;;;;;4985686;28;19977;-74
2022/11/17 06:50:14;;;;;;;;;;;7.80;99.90;;;;;;4986032;28;19918;-74
2022/11/17 06:52:40;;;;;;;;;;;7.80;99.90;;;;;;4986192;28;20087;-75
2022/11/17 06:55:06;;;;;;;;;;;7.80;99.90;;;;;;4985863;28;19918;-74
2022/11/17 06:57:32;;;;;;;;;;;7.90;99.90;;;;;;4985790;28;19918;-73
2022/11/17 06:59:57;;;;;;;;;;;7.90;99.90;;;;;;4985345;28;20005;-73
2022/11/17 07:02:23;;;;;;;;;;;7.90;99.90;;;;;;4986004;28;20236;-72
2022/11/17 07:04:49;;;;;;;;;;;7.90;99.90;;;;;;4985695;28;20206;-74
2022/11/17 07:07:14;;;;;;;;;;;7.90;99.90;;;;;;4985661;28;19972;-74
2022/11/17 07:09:40;;;;;;;;;;;7.80;99.90;;;;;;4985743;28;20483;-74
2022/11/17 07:12:05;;;;;;;;;;;7.90;99.90;;;;;;4985625;28;19917;-74
2022/11/17 07:14:31;;;;;;;;;;;7.80;99.90;;;;;;4985407;28;19910;-74
2022/11/17 07:16:57;;;;;;;;;;;7.80;99.90;;;;;;4985296;28;19933;-74
2022/11/17 07:19:22;;;;;;;;;;;7.90;99.90;;;;;;4986446;28;19926;-74
2022/11/17 07:21:48;;;;;;;;;;;7.80;99.90;;;;;;4986050;28;20010;-74
2022/11/17 07:24:14;;;;;;;;;;;7.80;99.90;;;;;;4985394;28;19929;-75
2022/11/17 07:26:39;;;;;;;;;;;7.80;99.90;;;;;;4985139;28;19984;-75
2022/11/17 07:29:05;;;;;;;;;;;7.90;99.90;;;;;;4985082;28;19961;-74
2022/11/17 07:31:33;;;;;;;;;;;7.90;99.90;;;;;;4985237;28;19910;-74
2022/11/17 07:33:58;;;;;;;;;;;7.90;99.90;;;;;;4984308;28;20244;-74
2022/11/17 07:36:24;;;;;;;;;;;7.90;99.90;;;;;;4985086;28;19917;-74
2022/11/17 07:38:49;;;;;;;;;;;7.90;99.90;;;;;;4985035;28;19914;-74
2022/11/17 07:41:15;;;;;;;;;;;7.90;99.90;;;;;;4984622;28;19914;-73
2022/11/17 07:43:41;;;;;;;;;;;7.90;99.90;;;;;;4985241;28;19910;-74
2022/11/17 07:46:11;;;;;;;;;;;8.00;99.90;;;;;;4985177;28;19914;-73
2022/11/17 07:48:36;;;;;;;;;;;8.00;99.90;;;;;;4984281;28;19934;-74
2022/11/17 07:51:03;;;;;;;;;;;8.00;99.90;;;;;;4985227;28;19914;-72
2022/11/17 07:53:30;;;;;;;;;;;8.00;99.90;;;;;;4985628;28;20249;-73
2022/11/17 07:55:56;;;;;;;;;;;8.00;99.90;;;;;;4984173;28;19910;-73
2022/11/17 07:58:24;;;;;;;;;;;8.00;99.90;;;;;;4984993;28;19910;-72
2022/11/17 08:00:49;;;;;;;;;;;8.00;99.90;;;;;;4985374;28;19983;-73
2022/11/17 08:03:15;;;;;;;;;;;8.00;99.90;;;;;;4985202;28;19938;-73
2022/11/17 08:05:41;;;;;;;;;;;8.10;99.90;;;;;;4983887;28;19914;-73
2022/11/17 08:08:07;;;;;;;;;;;8.10;99.90;;;;;;4984391;28;19914;-73
2022/11/17 08:10:33;;;;;;;;;;;8.10;99.90;;;;;;4984867;28;19910;-73
2022/11/17 08:13:02;;;;;;;;;;;8.10;99.90;;;;;;4984686;28;19918;-73
2022/11/17 08:15:28;;;;;;;;;;;8.20;99.90;;;;;;4984791;28;19910;-73
2022/11/17 08:17:55;;;;;;;;;;;8.10;99.90;;;;;;4984557;28;19918;-74
2022/11/17 08:20:20;;;;;;;;;;;8.20;99.90;;;;;;4984805;28;19977;-73
2022/11/17 08:22:48;;;;;;;;;;;8.20;99.90;;;;;;4984672;28;19910;-74
2022/11/17 08:25:14;;;;;;;;;;;8.20;99.90;;;;;;4983325;28;19948;-74
2022/11/17 08:27:40;;;;;;;;;;;8.20;99.90;;;;;;4984665;28;19946;-74
2022/11/17 08:30:08;;;;;;;;;;;8.20;99.90;;;;;;4983560;28;19932;-74
2022/11/17 08:32:34;;;;;;;;;;;8.20;99.90;;;;;;4983539;28;20011;-74
2022/11/17 08:35:02;;;;;;;;;;;8.20;99.90;;;;;;4984436;28;19941;-73
2022/11/17 08:37:29;;;;;;;;;;;8.30;99.90;;;;;;4982797;28;19949;-74
2022/11/17 08:39:55;;;;;;;;;;;8.20;99.90;;;;;;4984556;28;19917;-74
2022/11/17 08:42:20;;;;;;;;;;;8.20;99.90;;;;;;4983445;28;19910;-74
2022/11/17 08:44:46;;;;;;;;;;;8.30;99.90;;;;;;4984353;28;19917;-74
2022/11/17 08:47:12;;;;;;;;;;;8.30;99.90;;;;;;4983425;28;20264;-74
2022/11/17 08:49:37;;;;;;;;;;;8.30;99.90;;;;;;4982829;28;19953;-74
2022/11/17 08:52:03;;;;;;;;;;;8.30;99.90;;;;;;4983601;28;19953;-74
2022/11/17 08:54:29;;;;;;;;;;;8.30;99.90;;;;;;4984009;28;19925;-74
2022/11/17 08:56:57;;;;;;;;;;;8.30;99.90;;;;;;4983589;28;19910;-74
2022/11/17 08:59:24;;;;;;;;;;;8.40;99.90;;;;;;4983915;28;19910;-75
2022/11/17 09:01:50;;;;;;;;;;;8.40;99.90;;;;;;4981752;28;19954;-74
2022/11/17 09:04:16;;;;;;;;;;;8.40;99.90;;;;;;4982730;28;19945;-74
2022/11/17 09:06:42;;;;;;;;;;;8.50;99.90;;;;;;4983112;28;19914;-70
2022/11/17 09:09:07;;;;;;;;;;;8.50;99.90;;;;;;4983717;28;19945;-70
2022/11/17 09:11:33;;;;;;;;;;;8.50;99.90;;;;;;4983619;28;19914;-70
2022/11/17 09:13:59;;;;;;;;;;;8.60;99.90;;;;;;4983617;28;19954;-70
2022/11/17 09:16:24;;;;;;;;;;;8.70;99.90;;;;;;4982455;28;20201;-70
2022/11/17 09:18:57;;;;;;;;;;;8.70;99.90;;;;;;4983455;28;19913;-72
2022/11/17 09:21:23;;;;;;;;;;;8.70;99.90;;;;;;4982435;28;19910;-72
2022/11/17 09:23:48;;;;;;;;;;;8.70;99.90;;;;;;4983583;28;19918;-72
2022/11/17 09:26:14;;;;;;;;;;;8.80;99.90;;;;;;4983208;28;19969;-72
2022/11/17 09:28:41;;;;;;;;;;;8.80;99.90;;;;;;4983402;28;19910;-72
2022/11/17 09:31:07;;;;;;;;;;;8.90;99.90;;;;;;4982233;28;19910;-72
2022/11/17 09:33:33;;;;;;;;;;;8.90;99.90;;;;;;4983791;28;19910;-72
2022/11/17 09:35:59;;;;;;;;;;;8.90;99.90;;;;;;4983486;28;19946;-72
2022/11/17 09:38:24;;;;;;;;;;;8.90;99.90;;;;;;4983128;28;19956;-72
2022/11/17 09:40:51;;;;;;;;;;;8.90;99.90;;;;;;4983806;28;19910;-72
2022/11/17 09:43:27;;;;;;;;;;;9.00;99.90;;;;;;4981942;28;19913;-72
2022/11/17 09:46:09;;;;;;;;;;;9.00;99.90;;;;;;4981283;28;19934;-72
2022/11/17 09:48:44;;;;;;;;;;;9.10;99.90;;;;;;4981553;28;20098;-72
2022/11/17 09:51:11;;;;;;;;;;;9.10;99.90;;;;;;4965479;28;19937;-72
2022/11/17 09:53:48;;;;;;;;;;;9.10;99.90;;;;;;4965454;28;19986;-72
2022/11/17 09:56:14;;;;;;;;;;;9.20;99.90;;;;;;4965636;28;19918;-72
2022/11/17 09:58:41;;;;;;;;;;;9.30;99.90;;;;;;4981508;28;19957;-72
2022/11/17 10:01:15;;;;;;;;;;;9.30;99.90;;;;;;4982260;28;20213;-72
2022/11/17 10:03:42;;;;;;;;;;;9.30;99.90;;;;;;4966353;28;20253;-72
2022/11/17 10:06:15;;;;;;;;;;;9.40;99.90;;;;;;4983126;28;19921;-72
2022/11/17 10:09:00;;;;;;;;;;;9.40;99.90;;;;;;4963126;28;19946;-72
2022/11/17 10:11:33;;;;;;;;;;;9.40;99.90;;;;;;4962988;29;19965;-71
2022/11/17 10:14:09;;;;;;;;;;;9.50;99.90;;;;;;4966169;28;19918;-72
2022/11/17 10:16:35;;;;;;;;;;;9.50;99.90;;;;;;4979858;28;19910;-72
2022/11/17 10:19:28;;;;;;;;;;;9.60;99.90;;;;;;4985811;28;19953;-72
2022/11/17 10:21:56;;;;;;;;;;;9.60;99.90;;;;;;4985050;28;19914;-72
2022/11/17 10:24:33;;;;;;;;;;;9.70;99.90;;;;;;4985035;28;19910;-72
2022/11/17 10:26:59;;;;;;;;;;;9.80;99.90;;;;;;4985707;28;20114;-72
2022/11/17 10:29:25;;;;;;;;;;;9.90;99.90;;;;;;4968790;28;19976;-73
2022/11/17 10:31:51;;;;;;;;;;;10.10;99.90;;;;;;4968520;28;20086;-73
2022/11/17 10:34:36;;;;;;;;;;;10.60;99.90;;;;;;4984681;28;19917;-73
2022/11/17 10:37:11;;;;;;;;;;;10.90;99.90;;;;;;4967884;28;20109;-72
2022/11/17 10:39:40;;;;;;;;;;;10.90;99.90;;;;;;4984795;28;19911;-73
2022/11/17 10:42:19;;;;;;;;;;;10.90;99.90;;;;;;4983042;28;19989;-73
2022/11/17 10:44:50;;;;;;;;;;;10.80;99.90;;;;;;4984085;28;19918;-73
2022/11/17 10:47:37;;;;;;;;;;;10.60;99.90;;;;;;4984041;28;19910;-72
2022/11/17 10:50:07;;;;;;;;;;;10.40;99.90;;;;;;4984654;28;19922;-72
2022/11/17 10:52:33;;;;;;;;;;;10.20;99.90;;;;;;4983013;28;19933;-72
2022/11/17 10:55:18;;;;;;;;;;;10.00;99.90;;;;;;4985701;28;19918;-72
2022/11/17 10:57:45;;;;;;;;;;;9.90;99.90;;;;;;4984174;28;20295;-72
2022/11/17 11:00:22;;;;;;;;;;;9.80;99.90;;;;;;4968523;28;19914;-72
2022/11/17 11:02:48;;;;;;;;;;;9.80;99.90;;;;;;4968139;28;19925;-72
2022/11/17 11:05:15;;;;;;;;;;;9.80;99.90;;;;;;4985267;28;20209;-72
2022/11/17 11:07:41;;;;;;;;;;;9.80;99.90;;;;;;4984239;28;19925;-72
2022/11/17 11:10:24;;;;;;;;;;;9.90;99.90;;;;;;4984398;28;19949;-71
2022/11/17 11:13:12;;;;;;;;;;;10.00;99.90;;;;;;4984855;28;19910;-72
2022/11/17 11:15:37;;;;;;;;;;;10.10;99.90;;;;;;4974130;28;19938;-72
2022/11/17 11:18:14;;;;;;;;;;;10.40;99.90;;;;;;4985211;28;19910;-72
2022/11/17 11:20:53;;;;;;;;;;;10.50;99.90;;;;;;4982446;28;19922;-74
2022/11/17 11:23:28;;;;;;;;;;;10.50;99.90;;;;;;4982487;28;19997;-72
2022/11/17 11:25:58;;;;;;;;;;;10.40;99.90;;;;;;4982249;28;19949;-72
2022/11/17 11:28:48;;;;;;;;;;;10.40;99.90;;;;;;4985060;28;19988;-72
2022/11/17 11:31:29;;;;;;;;;;;10.40;99.90;;;;;;4982398;28;19924;-71
2022/11/17 11:34:05;;;;;;;;;;;10.40;99.90;;;;;;4981182;28;19914;-72
2022/11/17 11:36:52;;;;;;;;;;;10.40;99.90;;;;;;4983206;28;19952;-72
2022/11/17 11:39:33;;;;;;;;;;;10.50;99.90;;;;;;4981773;28;19921;-71
2022/11/17 11:42:17;;;;;;;;;;;10.40;99.90;;;;;;4983063;28;20229;-71
2022/11/17 11:44:56;;;;;;;;;;;10.50;99.90;;;;;;4983314;28;19922;-73
2022/11/17 11:47:28;;;;;;;;;;;10.40;99.90;;;;;;4982947;28;19917;-72
2022/11/17 11:50:00;;;;;;;;;;;10.50;99.90;;;;;;4985196;28;19929;-72
2022/11/17 11:52:29;;;;;;;;;;;10.60;99.90;;;;;;5000102;28;19910;-72
2022/11/17 11:54:59;;;;;;;;;;;10.70;99.90;;;;;;4984044;28;19914;-71
2022/11/17 11:57:28;;;;;;;;;;;11.00;99.90;;;;;;4983800;28;19917;-71
2022/11/17 12:00:05;;;;;;;;;;;11.20;99.90;;;;;;4983949;28;19918;-70
2022/11/17 12:02:41;;;;;;;;;;;11.40;99.90;;;;;;4984685;28;19910;-70
2022/11/17 12:05:17;;;;;;;;;;;11.50;99.90;;;;;;4983775;28;19961;-70
2022/11/17 12:07:54;;;;;;;;;;;11.60;99.90;;;;;;4983501;28;19910;-70
2022/11/17 12:10:28;;;;;;;;;;;11.90;99.90;;;;;;4983774;28;19910;-70
2022/11/17 12:12:53;;;;;;;;;;;12.10;99.90;;;;;;4983800;28;19921;-69
2022/11/17 12:15:19;;;;;;;;;;;12.30;99.90;;;;;;4983333;28;19910;-69
2022/11/17 12:17:50;;;;;;;;;;;12.40;99.90;;;;;;4983820;28;19910;-69
2022/11/17 12:20:37;;;;;;;;;;;12.40;99.90;;;;;;4984522;28;19962;-69
2022/11/17 12:23:06;;;;;;;;;;;12.40;99.90;;;;;;4984495;28;20267;-70
2022/11/17 12:25:33;;;;;;;;;;;12.30;99.90;;;;;;4984459;28;19925;-69
2022/11/17 12:27:58;;;;;;;;;;;12.10;99.90;;;;;;4983066;28;20128;-70
2022/11/17 12:30:27;;;;;;;;;;;12.20;99.90;;;;;;4983123;28;19949;-69
2022/11/17 12:32:53;;;;;;;;;;;12.40;99.90;;;;;;4984184;28;19952;-70
2022/11/17 12:35:28;;;;;;;;;;;12.50;99.90;;;;;;4980937;28;19922;-70
2022/11/17 12:38:14;;;;;;;;;;;12.40;99.90;;;;;;4983054;28;19928;-69
2022/11/17 12:40:42;;;;;;;;;;;12.30;99.90;;;;;;4983762;28;19969;-69
2022/11/17 12:43:18;;;;;;;;;;;12.20;99.90;;;;;;4983976;28;19985;-70
2022/11/17 12:46:02;;;;;;;;;;;12.00;99.90;;;;;;4983139;28;19930;-69
2022/11/17 12:48:32;;;;;;;;;;;11.90;99.90;;;;;;4984080;28;19914;-70
2022/11/17 12:51:01;;;;;;;;;;;11.80;99.90;;;;;;4984293;28;20209;-69
2022/11/17 12:53:59;;;;;;;;;;;11.70;99.90;;;;;;4984278;28;19950;-70
2022/11/17 12:56:36;;;;;;;;;;;11.60;99.90;;;;;;4965101;28;19918;-70
2022/11/17 12:59:03;;;;;;;;;;;11.50;99.90;;;;;;4983412;28;19910;-70
2022/11/17 13:01:51;;;;;;;;;;;11.40;99.90;;;;;;4982482;28;20276;-70
2022/11/17 13:04:18;;;;;;;;;;;11.40;99.90;;;;;;4983975;28;19910;-70
2022/11/17 13:07:03;;;;;;;;;;;11.30;99.90;;;;;;4982395;28;20189;-70
2022/11/17 13:09:30;;;;;;;;;;;11.20;99.90;;;;;;4983948;28;20125;-70
2022/11/17 13:12:00;;;;;;;;;;;11.10;99.90;;;;;;4984143;28;19909;-70
2022/11/17 13:14:25;;;;;;;;;;;11.00;99.90;;;;;;4983186;28;19977;-70
2022/11/17 13:16:51;;;;;;;;;;;10.90;99.90;;;;;;4982304;28;19910;-70
2022/11/17 13:19:28;;;;;;;;;;;10.80;99.90;;;;;;4981942;28;19917;-70
2022/11/17 13:22:04;;;;;;;;;;;10.70;99.90;;;;;;4983218;28;19949;-70
2022/11/17 13:24:32;;;;;;;;;;;10.60;99.90;;;;;;4982254;28;19910;-71
2022/11/17 13:27:01;;;;;;;;;;;10.50;99.90;;;;;;4981680;28;19914;-70
2022/11/17 13:29:27;;;;;;;;;;;10.50;99.90;;;;;;4981962;28;19910;-70
2022/11/17 13:32:13;;;;;;;;;;;10.40;99.90;;;;;;4982629;28;19998;-70
2022/11/17 13:34:50;;;;;;;;;;;10.40;99.90;;;;;;4972359;28;19918;-70
2022/11/17 13:37:17;;;;;;;;;;;10.30;99.90;;;;;;4978996;28;19925;-70
2022/11/17 13:40:00;;;;;;;;;;;10.30;99.90;;;;;;4982562;28;19977;-70
2022/11/17 13:42:29;;;;;;;;;;;10.30;99.90;;;;;;4980908;28;19916;-70
2022/11/17 13:44:55;;;;;;;;;;;10.30;99.90;;;;;;4964871;28;19988;-70
2022/11/17 13:47:36;;;;;;;;;;;10.40;99.90;;;;;;4965257;28;19941;-70
2022/11/17 13:50:21;;;;;;;;;;;10.40;99.90;;;;;;4986918;28;19922;-70
2022/11/17 13:52:53;;;;;;;;;;;10.50;99.90;;;;;;4986771;28;20086;-70
2022/11/17 13:55:19;;;;;;;;;;;10.50;99.90;;;;;;4985534;28;20221;-70
2022/11/17 13:57:54;;;;;;;;;;;10.50;99.90;;;;;;4984300;28;19938;-70
2022/11/17 14:00:20;;;;;;;;;;;10.50;99.90;;;;;;4984614;28;20148;-70
2022/11/17 14:02:52;;;;;;;;;;;10.40;99.90;;;;;;4986119;28;19998;-70
2022/11/17 14:05:21;;;;;;;;;;;10.30;99.90;;;;;;4985933;28;20272;-71
2022/11/17 14:07:48;;;;;;;;;;;10.40;99.90;;;;;;4985682;28;19914;-70
2022/11/17 14:10:19;;;;;;;;;;;10.40;99.90;;;;;;4984735;28;19929;-70
2022/11/17 14:12:49;;;;;;;;;;;10.40;99.90;;;;;;4986243;28;20109;-70
2022/11/17 14:15:24;;;;;;;;;;;10.40;99.90;;;;;;4984973;28;19922;-70
2022/11/17 14:17:54;;;;;;;;;;;10.30;99.90;;;;;;4984563;28;20101;-70
2022/11/17 14:20:22;;;;;;;;;;;10.30;99.90;;;;;;4985219;28;19922;-70
2022/11/17 14:23:25;;;;;;;;;;;10.20;99.90;;;;;;4986273;28;19921;-69
2022/11/17 14:25:52;;;;;;;;;;;10.10;99.90;;;;;;4985158;28;19981;-69
2022/11/17 14:28:19;;;;;;;;;;;10.10;99.90;;;;;;4985511;28;19914;-70
2022/11/17 14:30:54;;;;;;;;;;;10.10;99.90;;;;;;4984234;28;19937;-69
2022/11/17 14:33:20;;;;;;;;;;;10.10;99.90;;;;;;4984784;28;19910;-69
2022/11/17 14:35:49;;;;;;;;;;;10.10;99.90;;;;;;4984637;28;20129;-70
2022/11/17 14:38:16;;;;;;;;;;;10.20;99.90;;;;;;4985777;28;19929;-70
2022/11/17 14:40:45;;;;;;;;;;;10.10;99.90;;;;;;4984827;28;19914;-69
2022/11/17 14:43:10;;;;;;;;;;;10.20;99.90;;;;;;4984804;28;19910;-69
2022/11/17 14:45:36;;;;;;;;;;;10.20;99.90;;;;;;4985517;28;19933;-70
2022/11/17 14:48:02;;;;;;;;;;;10.10;99.90;;;;;;4983953;28;19914;-69
2022/11/17 14:50:28;;;;;;;;;;;10.10;99.90;;;;;;4985683;28;20094;-69
2022/11/17 14:52:54;;;;;;;;;;;10.10;99.90;;;;;;4985666;28;19941;-70
2022/11/17 14:55:20;;;;;;;;;;;10.10;99.90;;;;;;4986105;28;19942;-70
2022/11/17 14:57:47;;;;;;;;;;;10.10;99.90;;;;;;4985758;28;19973;-70
2022/11/17 15:00:13;;;;;;;;;;;10.00;99.90;;;;;;4984118;28;19968;-69
2022/11/17 15:02:39;;;;;;;;;;;10.00;99.90;;;;;;4985702;28;20224;-69
2022/11/17 15:05:05;;;;;;;;;;;9.90;99.90;;;;;;4985704;28;19914;-69
2022/11/17 15:07:31;;;;;;;;;;;9.90;99.90;;;;;;4985250;28;20136;-69
2022/11/17 15:09:57;;;;;;;;;;;9.80;99.90;;;;;;4984406;28;19910;-70
2022/11/17 15:12:23;;;;;;;;;;;9.80;99.90;;;;;;4982433;28;19917;-69